METAR AND TAF INFORMATION
METAR FOR LFRV
ADDS - METARS form results

(2257 UTC 15 February 2019)
Data provider http://aviationweather.gov/metar/data/
 
METAR text: LFRV 152230Z AUTO 25004KT 210V280 0400 FG VV/// 06/06 Q1026
Conditions at: LFRV (VANNES/MEUCON , FR) observed 2230 UTC 15 February 2019
Temperature: 6.0°C (43°F)
Dewpoint: 6.0°C (43°F) [RH = 100%]
Pressure (altimeter): 30.30 inches Hg (1026.0 mb)
Winds: from the WSW (250 degrees) at 5 MPH (4 knots; 2.1 m/s)
Visibility: 0.25 miles (0.40 km)
Ceiling: indefinite ceiling with vertical visibility of 0 feet AGL
Clouds: obscured sky
Weather: FG  (fog)

METAR text: LFRV 152200Z AUTO 23004KT 0350 FG VV/// 07/06 Q1026
Conditions at: LFRV (VANNES/MEUCON , FR) observed 2200 UTC 15 February 2019
Temperature: 7.0°C (45°F)
Dewpoint: 6.0°C (43°F) [RH = 93%]
Pressure (altimeter): 30.30 inches Hg (1026.0 mb)
Winds: from the SW (230 degrees) at 5 MPH (4 knots; 2.1 m/s)
Visibility: 0.22 miles (0.35 km)
Ceiling: indefinite ceiling with vertical visibility of 0 feet AGL
Clouds: obscured sky
Weather: FG  (fog)

 AIRPORT MAP

 RUNWAY INFORMATION
Runway 04 Runway length 5020 ft Runway width 148 ft
Runway elevation 429 ft Runway displaced threshold 0 ft Runway heading 39
Runway 22 Runway length 5020 ft Runway width 148 ft
Runway elevation 437 ft Runway displaced threshold 0 ft Runway heading 219
Runway 08 Runway length 3363 ft Runway width 197 ft
Runway elevation 433 ft Runway displaced threshold 328 ft Runway heading 82
Runway 26 Runway length 3363 ft Runway width 197 ft
Runway elevation 440 ft Runway displaced threshold 0 ft Runway heading 262

 AIRPORT FREQUENCIES
Type TWR Name VANNES TWR Frequency 122.6 MHZ

 AIRPORT NEAR NAVIGATION AIDS



Powered by Virtual Airlines Manager [v2.6.2]